Time;durP1;ratioP1;P1;durP2;ratioP2;P2;SDS_P1;SDS_P2;PMS_P1;PMS_P2;Temp;Humidity;BMP_temperature;BMP_pressure;BME280_temperature;BME280_humidity;BME280_pressure;Samples;Min_cycle;Max_cycle;Signal;HPM_P1;HPM_P2
2021/12/04 00:01:46;;;;;;;67.13;5.80;;;;;;;;;;5075620;28;20593;-65
2021/12/04 00:04:18;;;;;;;62.40;5.40;;;;;;;;;;5075885;28;20228;-65
2021/12/04 00:06:48;;;;;;;60.95;5.35;;;;;;;;;;5072588;28;20260;-65
2021/12/04 00:09:17;;;;;;;61.65;5.70;;;;;;;;;;5070962;28;20228;-65
2021/12/04 00:11:52;;;;;;;60.28;5.50;;;;;;;;;;5069117;28;20677;-64
2021/12/04 00:14:19;;;;;;;60.05;5.10;;;;;;;;;;5071793;28;20204;-65
2021/12/04 00:16:47;;;;;;;67.85;6.47;;;;;;;;;;5071636;28;20216;-64
2021/12/04 00:19:14;;;;;;;60.83;5.80;;;;;;;;;;5071357;28;20228;-65
2021/12/04 00:21:41;;;;;;;65.22;6.00;;;;;;;;;;5071530;28;20295;-65
2021/12/04 00:24:10;;;;;;;66.75;5.90;;;;;;;;;;5071390;28;20209;-65
2021/12/04 00:26:37;;;;;;;62.80;6.28;;;;;;;;;;5071296;28;20231;-65
2021/12/04 00:29:05;;;;;;;62.10;5.68;;;;;;;;;;5071211;28;20653;-64
2021/12/04 00:31:32;;;;;;;63.03;7.15;;;;;;;;;;5071600;28;20230;-65
2021/12/04 00:34:00;;;;;;;66.78;7.00;;;;;;;;;;5071461;28;20291;-65
2021/12/04 00:36:33;;;;;;;63.20;6.65;;;;;;;;;;5074692;28;20266;-64
2021/12/04 00:50:06;;;;;;;64.05;7.40;;;;;;;;;;5036117;28;20268;-65
2021/12/04 00:52:33;;;;;;;66.93;5.90;;;;;;;;;;5074982;28;20211;-64
2021/12/04 00:55:01;;;;;;;61.97;6.10;;;;;;;;;;5074969;28;20215;-65
2021/12/04 00:57:29;;;;;;;61.90;6.13;;;;;;;;;;5074500;28;20209;-65
2021/12/04 00:59:57;;;;;;;61.10;6.07;;;;;;;;;;5074764;28;20224;-65
2021/12/04 01:02:24;;;;;;;61.95;6.15;;;;;;;;;;5074915;28;20209;-65
2021/12/04 01:04:51;;;;;;;61.38;5.50;;;;;;;;;;5074954;28;20212;-65
2021/12/04 01:07:20;;;;;;;61.67;6.00;;;;;;;;;;5074392;28;20255;-65
2021/12/04 01:09:47;;;;;;;64.25;6.10;;;;;;;;;;5074597;28;20260;-65
2021/12/04 01:12:16;;;;;;;62.63;5.95;;;;;;;;;;5074415;28;20211;-65
2021/12/04 01:14:44;;;;;;;61.95;6.53;;;;;;;;;;5074760;28;20300;-65
2021/12/04 01:17:12;;;;;;;65.05;6.70;;;;;;;;;;5074240;28;20251;-65
2021/12/04 01:19:39;;;;;;;65.00;6.20;;;;;;;;;;5072580;28;20606;-65
2021/12/04 01:22:06;;;;;;;64.00;7.40;;;;;;;;;;5074526;28;20212;-65
2021/12/04 01:24:34;;;;;;;65.82;6.97;;;;;;;;;;5074266;28;20213;-65
2021/12/04 01:27:01;;;;;;;63.45;6.95;;;;;;;;;;5074155;28;20225;-65
2021/12/04 01:29:28;;;;;;;65.43;7.13;;;;;;;;;;5074127;28;20686;-65
2021/12/04 01:31:56;;;;;;;62.13;6.80;;;;;;;;;;5074271;28;20236;-65
2021/12/04 01:34:24;;;;;;;63.42;7.45;;;;;;;;;;5074236;28;20291;-65
2021/12/04 01:36:51;;;;;;;64.40;6.85;;;;;;;;;;5074191;28;20208;-65
2021/12/04 01:39:19;;;;;;;62.90;7.20;;;;;;;;;;5073621;28;20322;-65
2021/12/04 01:41:46;;;;;;;65.38;6.32;;;;;;;;;;5074391;28;20211;-65
2021/12/04 01:44:14;;;;;;;62.75;6.95;;;;;;;;;;5074130;28;20258;-65
2021/12/04 01:46:42;;;;;;;64.85;6.75;;;;;;;;;;5073638;28;20781;-65
2021/12/04 01:49:10;;;;;;;61.90;6.40;;;;;;;;;;5073512;28;20228;-66
2021/12/04 01:51:38;;;;;;;67.63;7.10;;;;;;;;;;5061969;28;20305;-66
2021/12/04 01:54:05;;;;;;;62.05;6.45;;;;;;;;;;5053821;28;20205;-65
2021/12/04 01:56:33;;;;;;;63.78;6.72;;;;;;;;;;5053780;28;20673;-65
2021/12/04 01:59:00;;;;;;;61.85;6.03;;;;;;;;;;5053473;28;20229;-65
2021/12/04 02:01:31;;;;;;;62.03;5.90;;;;;;;;;;5053670;28;20482;-65
2021/12/04 02:03:58;;;;;;;61.97;6.07;;;;;;;;;;5053836;28;20216;-66
2021/12/04 02:06:26;;;;;;;62.88;6.10;;;;;;;;;;5053302;28;20228;-65
2021/12/04 02:08:54;;;;;;;62.25;6.10;;;;;;;;;;5053720;28;20232;-65
2021/12/04 02:11:21;;;;;;;62.17;5.90;;;;;;;;;;5053766;28;20300;-66
2021/12/04 02:13:48;;;;;;;61.67;5.85;;;;;;;;;;5053385;28;20208;-65
2021/12/04 02:16:16;;;;;;;63.00;5.85;;;;;;;;;;5053517;28;20198;-64
2021/12/04 02:18:43;;;;;;;61.55;5.88;;;;;;;;;;5052971;28;20234;-65
2021/12/04 02:21:12;;;;;;;62.38;5.95;;;;;;;;;;5053320;28;20744;-65
2021/12/04 02:23:39;;;;;;;61.28;5.60;;;;;;;;;;5052157;28;20577;-66
2021/12/04 02:26:06;;;;;;;62.33;5.45;;;;;;;;;;5053720;28;20221;-65
2021/12/04 02:28:33;;;;;;;60.25;5.05;;;;;;;;;;5052960;28;20271;-65
2021/12/04 02:31:00;;;;;;;71.15;7.45;;;;;;;;;;5056719;28;20197;-65
2021/12/04 02:33:28;;;;;;;61.47;5.50;;;;;;;;;;5073028;28;20562;-65
2021/12/04 02:35:56;;;;;;;61.50;5.88;;;;;;;;;;5072903;28;20205;-65
2021/12/04 02:38:26;;;;;;;61.25;6.00;;;;;;;;;;5072890;28;21651;-65
2021/12/04 02:40:53;;;;;;;60.95;5.97;;;;;;;;;;5073042;28;20299;-65
2021/12/04 02:43:20;;;;;;;61.92;5.93;;;;;;;;;;5072907;28;20211;-64
2021/12/04 02:45:48;;;;;;;62.50;6.55;;;;;;;;;;5062307;28;20317;-65
2021/12/04 02:48:15;;;;;;;63.20;5.68;;;;;;;;;;5052651;28;20208;-64
2021/12/04 02:50:43;;;;;;;61.90;6.10;;;;;;;;;;5052884;28;20304;-65
2021/12/04 02:53:10;;;;;;;61.90;6.38;;;;;;;;;;5052837;28;20208;-65
2021/12/04 02:55:38;;;;;;;64.65;6.72;;;;;;;;;;5052630;28;20206;-64
2021/12/04 02:58:06;;;;;;;61.92;5.65;;;;;;;;;;5050629;28;20588;-65
2021/12/04 03:00:33;;;;;;;64.88;6.05;;;;;;;;;;5052726;28;20301;-66
2021/12/04 03:03:02;;;;;;;64.72;5.80;;;;;;;;;;5052712;28;20292;-65
2021/12/04 03:05:30;;;;;;;61.13;5.43;;;;;;;;;;5052451;28;20202;-65
2021/12/04 03:07:58;;;;;;;63.10;6.95;;;;;;;;;;5052075;28;20205;-65
2021/12/04 03:10:26;;;;;;;61.92;6.22;;;;;;;;;;5052638;28;20259;-65
2021/12/04 03:12:54;;;;;;;63.20;6.93;;;;;;;;;;5052426;28;20201;-65
2021/12/04 03:15:22;;;;;;;61.92;6.22;;;;;;;;;;5052470;28;20300;-65
2021/12/04 03:17:49;;;;;;;62.30;7.05;;;;;;;;;;5052071;28;20205;-65
2021/12/04 03:20:16;;;;;;;62.97;6.90;;;;;;;;;;5052237;28;20316;-66
2021/12/04 03:22:45;;;;;;;63.13;6.57;;;;;;;;;;5052221;28;20725;-65
2021/12/04 03:25:15;;;;;;;61.92;6.80;;;;;;;;;;5052100;28;20249;-66
2021/12/04 03:27:46;;;;;;;64.20;7.85;;;;;;;;;;5051785;28;20225;-66
2021/12/04 03:30:24;;;;;;;63.80;6.80;;;;;;;;;;5065059;28;20244;-66
2021/12/04 03:35:14;;;;;;;62.03;5.93;;;;;;;;;;5072061;28;20673;-66
2021/12/04 03:41:12;;;;;;;64.60;6.90;;;;;;;;;;5072076;28;20196;-65
2021/12/04 03:43:39;;;;;;;62.15;7.22;;;;;;;;;;5071859;28;20215;-66
2021/12/04 03:46:10;;;;;;;63.38;6.65;;;;;;;;;;5071930;28;20580;-65
2021/12/04 03:48:53;;;;;;;64.45;6.65;;;;;;;;;;5071561;28;20747;-66
2021/12/04 03:51:21;;;;;;;63.33;6.88;;;;;;;;;;5071958;28;20714;-66
2021/12/04 03:53:48;;;;;;;65.25;7.43;;;;;;;;;;5071724;28;20205;-65
2021/12/04 03:56:19;;;;;;;65.40;7.07;;;;;;;;;;5071911;28;20228;-66
2021/12/04 03:58:46;;;;;;;64.25;6.75;;;;;;;;;;5071585;28;20221;-65
2021/12/04 04:01:15;;;;;;;64.50;7.57;;;;;;;;;;5069874;28;20213;-66
2021/12/04 04:03:42;;;;;;;64.13;7.55;;;;;;;;;;5071762;28;20330;-65
2021/12/04 04:06:09;;;;;;;64.85;7.45;;;;;;;;;;5071606;28;20231;-66
2021/12/04 04:08:36;;;;;;;63.08;7.05;;;;;;;;;;5072188;28;20236;-65
2021/12/04 04:11:04;;;;;;;64.60;7.50;;;;;;;;;;5078444;28;20296;-66
2021/12/04 04:13:31;;;;;;;64.25;8.27;;;;;;;;;;5078369;28;20200;-66
2021/12/04 04:16:00;;;;;;;62.97;6.72;;;;;;;;;;5078398;28;20296;-66
2021/12/04 04:18:31;;;;;;;63.17;7.85;;;;;;;;;;5078043;28;20574;-66
2021/12/04 04:20:58;;;;;;;63.95;7.43;;;;;;;;;;5078286;28;20615;-66
2021/12/04 04:23:25;;;;;;;63.80;7.45;;;;;;;;;;5078511;28;20208;-66
2021/12/04 04:25:52;;;;;;;63.13;6.32;;;;;;;;;;5078382;28;20207;-66
2021/12/04 04:28:20;;;;;;;63.72;7.00;;;;;;;;;;5077947;28;20231;-66
2021/12/04 04:30:47;;;;;;;65.70;7.43;;;;;;;;;;5078190;28;20207;-65
2021/12/04 04:33:15;;;;;;;63.95;8.02;;;;;;;;;;5078182;28;20291;-66
2021/12/04 04:35:45;;;;;;;67.20;7.65;;;;;;;;;;5078331;28;20205;-66
2021/12/04 04:38:24;;;;;;;63.15;6.97;;;;;;;;;;5077769;28;20204;-66
2021/12/04 04:57:38;;;;;;;63.80;6.97;;;;;;;;;;5077784;28;20200;-65
2021/12/04 05:00:26;;;;;;;64.05;7.03;;;;;;;;;;5078003;28;20421;-66
2021/12/04 05:11:20;;;;;;;62.85;6.75;;;;;;;;;;5077925;28;20661;-66
2021/12/04 05:13:47;;;;;;;64.63;7.28;;;;;;;;;;5077992;28;20292;-66
2021/12/04 05:16:15;;;;;;;64.15;7.03;;;;;;;;;;5077806;28;20209;-65
2021/12/04 05:18:51;;;;;;;63.00;6.30;;;;;;;;;;5077375;28;20235;-65
2021/12/04 05:21:18;;;;;;;65.50;7.75;;;;;;;;;;5074886;28;20211;-67
2021/12/04 05:23:47;;;;;;;63.15;6.95;;;;;;;;;;5074598;28;20204;-66
2021/12/04 05:26:16;;;;;;;61.95;5.85;;;;;;;;;;5074629;28;20207;-65
2021/12/04 05:28:43;;;;;;;62.22;6.40;;;;;;;;;;5074310;28;20231;-66
2021/12/04 05:31:10;;;;;;;62.50;6.82;;;;;;;;;;5074508;28;20205;-65
2021/12/04 05:33:39;;;;;;;63.72;7.35;;;;;;;;;;5074498;28;20201;-66
2021/12/04 05:36:07;;;;;;;62.92;6.28;;;;;;;;;;5074264;28;20641;-66
2021/12/04 05:38:34;;;;;;;64.07;6.82;;;;;;;;;;5073947;28;20335;-66
2021/12/04 05:41:04;;;;;;;64.43;7.40;;;;;;;;;;5074434;28;20236;-66
2021/12/04 05:43:31;;;;;;;65.65;7.13;;;;;;;;;;5074296;28;20211;-65
2021/12/04 05:46:04;;;;;;;64.78;7.45;;;;;;;;;;5074101;28;20677;-66
2021/12/04 05:48:41;;;;;;;61.00;6.20;;;;;;;;;;5073634;28;20233;-65
2021/12/04 05:54:03;;;;;;;63.88;6.35;;;;;;;;;;5056273;28;20560;-66
2021/12/04 05:56:33;;;;;;;63.45;7.07;;;;;;;;;;5073957;28;20687;-66
2021/12/04 05:59:00;;;;;;;68.60;9.13;;;;;;;;;;5073526;28;20229;-66
2021/12/04 06:01:28;;;;;;;62.08;6.90;;;;;;;;;;5073936;28;20208;-65
2021/12/04 06:03:55;;;;;;;63.33;6.90;;;;;;;;;;5073987;28;20296;-64
2021/12/04 06:06:22;;;;;;;65.63;7.38;;;;;;;;;;5073744;28;20585;-66
2021/12/04 06:08:50;;;;;;;64.55;7.10;;;;;;;;;;5073360;28;20235;-65
2021/12/04 06:11:17;;;;;;;66.60;7.15;;;;;;;;;;5073591;28;20236;-66
2021/12/04 06:13:45;;;;;;;61.80;5.97;;;;;;;;;;5074102;28;20200;-66
2021/12/04 06:16:13;;;;;;;62.50;6.57;;;;;;;;;;5073665;28;20212;-66
2021/12/04 06:18:40;;;;;;;64.00;6.60;;;;;;;;;;5073218;28;20252;-66
2021/12/04 06:23:51;;;;;;;64.10;6.50;;;;;;;;;;5073527;28;20263;-66
2021/12/04 06:26:19;;;;;;;63.08;6.78;;;;;;;;;;5073504;28;20215;-65
2021/12/04 06:28:47;;;;;;;61.83;6.60;;;;;;;;;;5072786;28;20316;-65
2021/12/04 06:31:15;;;;;;;62.80;6.68;;;;;;;;;;5073488;28;20315;-65
2021/12/04 06:33:42;;;;;;;62.17;6.50;;;;;;;;;;5072183;28;20204;-66
2021/12/04 06:36:09;;;;;;;65.57;7.68;;;;;;;;;;5073165;28;20295;-66
2021/12/04 06:38:37;;;;;;;63.40;7.47;;;;;;;;;;5072996;28;20221;-65
2021/12/04 06:41:04;;;;;;;63.80;7.28;;;;;;;;;;5073304;28;20209;-66
2021/12/04 06:43:31;;;;;;;64.25;7.28;;;;;;;;;;5073107;28;20291;-66
2021/12/04 06:46:01;;;;;;;63.65;7.65;;;;;;;;;;5073000;28;20295;-65
2021/12/04 06:48:36;;;;;;;62.35;7.18;;;;;;;;;;5072662;28;20229;-65
2021/12/04 06:51:07;;;;;;;63.38;7.82;;;;;;;;;;5072860;28;20301;-66
2021/12/04 06:53:39;;;;;;;65.82;8.18;;;;;;;;;;5072855;28;20742;-66
2021/12/04 06:56:08;;;;;;;64.28;7.18;;;;;;;;;;5073014;28;20305;-66
2021/12/04 06:58:36;;;;;;;65.35;7.78;;;;;;;;;;5072581;28;20652;-66
2021/12/04 07:01:05;;;;;;;63.63;6.85;;;;;;;;;;5072630;28;20220;-66
2021/12/04 07:03:32;;;;;;;64.75;7.75;;;;;;;;;;5072570;28;20219;-66
2021/12/04 07:06:00;;;;;;;65.03;7.85;;;;;;;;;;5072561;28;20207;-65
2021/12/04 07:08:27;;;;;;;67.28;9.15;;;;;;;;;;5072507;28;20228;-66
2021/12/04 07:10:54;;;;;;;76.15;17.20;;;;;;;;;;5072622;28;20648;-66
2021/12/04 07:13:21;;;;;;;72.97;12.23;;;;;;;;;;5072364;28;20291;-65
2021/12/04 07:15:58;;;;;;;67.65;11.35;;;;;;;;;;5072298;28;20201;-65
2021/12/04 07:18:26;;;;;;;68.43;10.75;;;;;;;;;;5072341;28;20220;-66
2021/12/04 07:20:54;;;;;;;68.35;11.38;;;;;;;;;;5072487;28;20205;-66
2021/12/04 07:23:21;;;;;;;82.00;15.73;;;;;;;;;;5072717;28;20300;-66
2021/12/04 07:25:48;;;;;;;71.03;11.40;;;;;;;;;;5072280;28;20300;-65
2021/12/04 07:28:15;;;;;;;69.57;10.20;;;;;;;;;;5071737;28;20229;-66
2021/12/04 07:30:42;;;;;;;70.65;11.73;;;;;;;;;;5072182;28;20591;-66
2021/12/04 07:33:10;;;;;;;75.32;13.27;;;;;;;;;;5072356;28;20228;-65
2021/12/04 07:35:38;;;;;;;78.65;16.75;;;;;;;;;;5072152;28;20226;-65
2021/12/04 07:38:05;;;;;;;71.40;14.70;;;;;;;;;;5071855;28;20197;-66
2021/12/04 07:40:32;;;;;;;86.13;20.95;;;;;;;;;;5072132;28;20299;-66
2021/12/04 07:42:59;;;;;;;70.80;12.20;;;;;;;;;;5071917;28;20577;-66
2021/12/04 07:45:27;;;;;;;69.22;9.30;;;;;;;;;;5071572;28;20200;-66
2021/12/04 07:47:54;;;;;;;64.03;8.27;;;;;;;;;;5071567;28;20807;-65
2021/12/04 07:50:21;;;;;;;63.10;7.13;;;;;;;;;;5071960;28;20225;-66
2021/12/04 07:52:50;;;;;;;65.78;8.77;;;;;;;;;;5072001;28;20204;-65
2021/12/04 07:55:17;;;;;;;65.10;8.60;;;;;;;;;;5071819;28;20209;-66
2021/12/04 07:57:44;;;;;;;68.55;8.25;;;;;;;;;;5071995;28;20203;-65
2021/12/04 08:00:13;;;;;;;62.25;7.30;;;;;;;;;;5071799;28;20231;-66
2021/12/04 08:02:41;;;;;;;65.30;7.95;;;;;;;;;;5071736;28;20754;-65
2021/12/04 08:05:09;;;;;;;62.95;7.07;;;;;;;;;;5071818;28;20208;-66
2021/12/04 08:07:36;;;;;;;64.55;7.32;;;;;;;;;;5071342;28;20221;-66
2021/12/04 08:10:05;;;;;;;64.75;7.85;;;;;;;;;;5071523;28;20731;-66
2021/12/04 08:12:32;;;;;;;62.97;7.35;;;;;;;;;;5071814;28;20300;-66
2021/12/04 08:14:59;;;;;;;63.60;7.45;;;;;;;;;;5071731;28;20577;-66
2021/12/04 08:17:26;;;;;;;62.03;7.03;;;;;;;;;;5071262;28;20219;-66
2021/12/04 08:19:53;;;;;;;64.43;7.20;;;;;;;;;;5071618;28;20228;-66
2021/12/04 08:22:21;;;;;;;63.45;7.28;;;;;;;;;;5071646;28;20832;-65
2021/12/04 08:24:48;;;;;;;66.30;7.53;;;;;;;;;;5071361;28;20219;-65
2021/12/04 08:27:17;;;;;;;62.50;6.80;;;;;;;;;;5071238;28;20262;-65
2021/12/04 08:29:45;;;;;;;63.78;6.95;;;;;;;;;;5071475;28;20235;-66
2021/12/04 08:32:12;;;;;;;63.05;6.63;;;;;;;;;;5071565;28;20209;-66
2021/12/04 08:34:39;;;;;;;63.25;7.25;;;;;;;;;;5071504;28;20205;-65
2021/12/04 08:37:07;;;;;;;62.08;5.93;;;;;;;;;;5071296;28;20576;-66
2021/12/04 08:39:34;;;;;;;68.78;7.53;;;;;;;;;;5071500;28;20225;-66
2021/12/04 08:42:01;;;;;;;61.80;6.10;;;;;;;;;;5071469;28;20205;-66
2021/12/04 08:44:30;;;;;;;61.80;5.65;;;;;;;;;;5071228;28;20296;-66
2021/12/04 08:46:58;;;;;;;63.30;6.65;;;;;;;;;;5071309;28;20201;-66
2021/12/04 08:49:26;;;;;;;62.85;6.85;;;;;;;;;;5070906;28;20225;-65
2021/12/04 08:51:53;;;;;;;64.32;7.15;;;;;;;;;;5071147;28;20684;-66
2021/12/04 08:54:20;;;;;;;66.32;5.97;;;;;;;;;;5071223;28;20300;-66
2021/12/04 08:56:48;;;;;;;64.75;7.22;;;;;;;;;;5073440;28;20295;-66
2021/12/04 08:59:15;;;;;;;64.38;6.75;;;;;;;;;;5074572;28;20221;-66
2021/12/04 09:01:44;;;;;;;62.70;6.55;;;;;;;;;;5074889;28;20240;-65
2021/12/04 09:04:12;;;;;;;64.53;7.95;;;;;;;;;;5074881;28;20200;-66
2021/12/04 09:06:40;;;;;;;63.75;7.32;;;;;;;;;;5075073;28;20235;-66
2021/12/04 09:09:09;;;;;;;64.60;7.10;;;;;;;;;;5074642;28;20232;-66
2021/12/04 09:11:38;;;;;;;71.15;7.50;;;;;;;;;;5074895;28;20287;-66
2021/12/04 09:14:06;;;;;;;65.20;6.70;;;;;;;;;;5074695;28;20208;-66
2021/12/04 09:16:34;;;;;;;64.75;8.32;;;;;;;;;;5074462;28;20219;-66
2021/12/04 09:19:02;;;;;;;68.05;7.20;;;;;;;;;;5074188;28;20312;-66
2021/12/04 09:21:29;;;;;;;65.03;7.60;;;;;;;;;;5074457;28;20299;-65
2021/12/04 09:24:04;;;;;;;65.63;7.72;;;;;;;;;;5074557;28;20205;-65
2021/12/04 09:26:39;;;;;;;69.90;8.30;;;;;;;;;;5074504;28;20200;-66
2021/12/04 09:29:14;;;;;;;68.13;9.82;;;;;;;;;;5074001;28;20323;-66
2021/12/04 09:35:01;;;;;;;63.28;6.45;;;;;;;;;;5061785;28;20595;-65
2021/12/04 09:40:32;;;;;;;63.30;6.60;;;;;;;;;;5074173;28;20274;-64
2021/12/04 09:59:58;;;;;;;62.10;6.05;;;;;;;;;;5073695;28;20730;-65
2021/12/04 10:02:35;;;;;;;62.13;6.60;;;;;;;;;;5073238;28;20217;-65
2021/12/04 10:05:40;;;;;;;64.18;7.13;;;;;;;;;;5071959;28;20204;-65
2021/12/04 10:14:22;;;;;;;64.72;8.25;;;;;;;;;;5065673;28;20291;-65
2021/12/04 10:20:03;;;;;;;65.60;7.03;;;;;;;;;;5001182;28;20695;-65
2021/12/04 10:22:36;;;;;;;63.75;8.57;;;;;;;;;;5057940;28;20208;-65
2021/12/04 10:32:01;;;;;;;63.05;7.38;;;;;;;;;;5073486;28;20216;-65
2021/12/04 10:33:44;;;;;;;63.30;8.00;;;;;;;;;;5072988;28;20296;-64
2021/12/04 10:36:13;;;;;;;65.47;8.10;;;;;;;;;;5073290;28;20209;-65
2021/12/04 10:38:43;;;;;;;65.35;8.85;;;;;;;;;;5072881;28;20682;-65
2021/12/04 10:41:12;;;;;;;64.57;8.32;;;;;;;;;;5073030;28;20212;-64
2021/12/04 10:43:40;;;;;;;64.13;8.32;;;;;;;;;;5073051;28;20219;-64
2021/12/04 10:46:13;;;;;;;66.75;8.15;;;;;;;;;;5070795;28;20205;-65
2021/12/04 10:48:47;;;;;;;68.32;8.50;;;;;;;;;;5052686;28;20264;-65
2021/12/04 10:51:24;;;;;;;68.00;10.57;;;;;;;;;;5053107;28;20592;-66
2021/12/04 10:53:55;;;;;;;66.95;9.18;;;;;;;;;;5053116;28;20319;-65
2021/12/04 10:56:30;;;;;;;64.13;8.25;;;;;;;;;;5072780;28;20209;-66
2021/12/04 10:59:24;;;;;;;69.85;9.45;;;;;;;;;;5072203;28;20596;-65
2021/12/04 11:02:03;;;;;;;64.50;8.70;;;;;;;;;;5072699;28;20214;-66
2021/12/04 11:04:38;;;;;;;64.70;8.15;;;;;;;;;;5072716;28;20280;-66
2021/12/04 11:07:38;;;;;;;69.80;9.23;;;;;;;;;;5072479;28;20660;-65
2021/12/04 11:18:51;;;;;;;65.80;8.60;;;;;;;;;;5071582;28;20217;-65
2021/12/04 11:24:26;;;;;;;65.17;7.87;;;;;;;;;;5072478;28;20452;-66
2021/12/04 11:27:23;;;;;;;64.75;7.90;;;;;;;;;;5072169;28;20447;-66
2021/12/04 11:38:39;;;;;;;61.27;6.50;;;;;;;;;;5088996;28;20530;-66
2021/12/04 11:41:22;;;;;;;62.10;7.00;;;;;;;;;;5089375;28;20541;-65
2021/12/04 11:43:54;;;;;;;61.90;6.13;;;;;;;;;;5089459;28;20440;-65
2021/12/04 11:46:24;;;;;;;61.07;5.43;;;;;;;;;;5089307;28;20446;-65
2021/12/04 11:48:52;;;;;;;61.10;5.50;;;;;;;;;;5088937;28;20547;-65
2021/12/04 11:51:20;;;;;;;62.57;5.40;;;;;;;;;;5089320;28;20450;-65
2021/12/04 11:53:49;;;;;;;63.00;5.80;;;;;;;;;;5088956;28;20960;-64
2021/12/04 11:56:17;;;;;;;61.10;5.70;;;;;;;;;;5088780;28;20447;-65
2021/12/04 11:58:45;;;;;;;62.93;4.80;;;;;;;;;;5088482;28;20464;-65
2021/12/04 12:01:21;;;;;;;58.60;3.83;;;;;;;;;;5088831;28;20543;-65
2021/12/04 12:03:52;;;;;;;59.43;3.30;;;;;;;;;;5086812;28;20540;-65
2021/12/04 12:06:28;;;;;;;60.60;3.70;;;;;;;;;;5088802;28;20448;-64
2021/12/04 12:09:02;;;;;;;59.00;3.47;;;;;;;;;;5088313;28;20556;-64
2021/12/04 12:11:29;;;;;;;58.63;3.40;;;;;;;;;;5088741;28;20508;-64
2021/12/04 12:13:58;;;;;;;59.30;3.27;;;;;;;;;;5088391;28;20455;-64
2021/12/04 12:16:27;;;;;;;57.93;2.87;;;;;;;;;;5088613;28;20885;-64
2021/12/04 12:18:56;;;;;;;58.10;3.20;;;;;;;;;;5087931;28;20469;-67
2021/12/04 12:21:27;;;;;;;58.40;3.00;;;;;;;;;;5088488;28;20448;-64
2021/12/04 12:27:04;;;;;;;58.13;2.70;;;;;;;;;;5088359;28;20421;-64
2021/12/04 12:32:38;;;;;;;58.37;3.03;;;;;;;;;;5088281;28;20940;-65
2021/12/04 12:37:53;;;;;;;58.10;2.70;;;;;;;;;;5067365;28;20519;-65
2021/12/04 12:40:20;;;;;;;61.70;3.10;;;;;;;;;;5067725;28;20565;-65
2021/12/04 12:42:49;;;;;;;58.50;3.17;;;;;;;;;;5067701;28;20932;-65
2021/12/04 12:45:20;;;;;;;57.97;2.80;;;;;;;;;;5067434;28;20450;-64
2021/12/04 12:47:48;;;;;;;58.17;2.80;;;;;;;;;;5066287;28;20446;-65
2021/12/04 12:50:25;;;;;;;58.37;2.80;;;;;;;;;;5053943;28;20506;-65
2021/12/04 12:53:00;;;;;;;60.03;2.67;;;;;;;;;;5054412;28;20529;-65
2021/12/04 12:55:31;;;;;;;58.50;3.10;;;;;;;;;;5054149;28;20454;-65
2021/12/04 12:58:12;;;;;;;58.90;2.90;;;;;;;;;;5053841;28;20485;-65
2021/12/04 13:11:52;;;;;;;58.10;2.80;;;;;;;;;;5054044;28;20500;-65
2021/12/04 13:14:22;;;;;;;58.07;2.67;;;;;;;;;;5053796;28;20490;-65
2021/12/04 13:16:51;;;;;;;58.10;2.50;;;;;;;;;;5053986;28;20503;-65
2021/12/04 13:19:20;;;;;;;58.07;2.70;;;;;;;;;;5053639;28;20562;-65
2021/12/04 13:21:48;;;;;;;57.77;2.50;;;;;;;;;;5053822;28;20461;-65
2021/12/04 13:24:15;;;;;;;58.00;2.80;;;;;;;;;;5053959;28;20534;-65
2021/12/04 13:26:44;;;;;;;57.97;2.73;;;;;;;;;;5053446;28;20451;-65
2021/12/04 13:29:12;;;;;;;58.47;3.20;;;;;;;;;;5053599;28;20471;-65
2021/12/04 13:31:41;;;;;;;59.47;3.00;;;;;;;;;;5053610;28;20450;-64
2021/12/04 13:34:09;;;;;;;58.53;2.80;;;;;;;;;;5053463;28;20450;-65
2021/12/04 13:36:37;;;;;;;58.30;2.97;;;;;;;;;;5053370;28;20469;-65
2021/12/04 13:39:07;;;;;;;58.00;2.70;;;;;;;;;;5057161;28;20473;-65
2021/12/04 13:41:35;;;;;;;58.50;3.20;;;;;;;;;;5053047;28;20858;-65
2021/12/04 13:44:05;;;;;;;59.43;3.00;;;;;;;;;;5053616;28;20448;-66
2021/12/04 13:46:38;;;;;;;58.40;2.93;;;;;;;;;;5053696;28;20455;-66
2021/12/04 13:49:07;;;;;;;58.00;2.77;;;;;;;;;;5053006;28;20556;-65
2021/12/04 13:51:34;;;;;;;58.60;2.90;;;;;;;;;;5053299;28;20542;-66
2021/12/04 13:54:02;;;;;;;58.57;2.73;;;;;;;;;;5053060;28;20453;-64
2021/12/04 13:56:29;;;;;;;58.50;2.90;;;;;;;;;;5053322;28;20451;-65
2021/12/04 13:58:58;;;;;;;58.10;2.90;;;;;;;;;;5052915;28;20502;-65
2021/12/04 14:01:25;;;;;;;58.37;2.87;;;;;;;;;;5052241;28;20545;-65
2021/12/04 14:03:55;;;;;;;59.63;2.80;;;;;;;;;;5053127;28;20445;-65
2021/12/04 14:06:24;;;;;;;58.20;2.70;;;;;;;;;;5052787;28;20642;-65
2021/12/04 14:08:58;;;;;;;59.57;2.70;;;;;;;;;;5052665;28;20466;-65
2021/12/04 14:11:29;;;;;;;59.50;3.57;;;;;;;;;;5053935;28;20524;-66
2021/12/04 14:13:56;;;;;;;58.73;2.87;;;;;;;;;;5053007;28;20835;-65
2021/12/04 14:16:24;;;;;;;58.63;3.10;;;;;;;;;;5052844;28;20449;-66
2021/12/04 14:18:51;;;;;;;58.17;3.00;;;;;;;;;;5052273;28;20490;-66
2021/12/04 14:21:18;;;;;;;58.40;3.10;;;;;;;;;;5052937;28;20452;-66
2021/12/04 14:23:49;;;;;;;58.40;3.27;;;;;;;;;;5052896;28;20542;-66
2021/12/04 14:26:16;;;;;;;58.30;3.00;;;;;;;;;;5052471;28;20445;-66
2021/12/04 14:28:44;;;;;;;58.60;2.93;;;;;;;;;;5052308;28;20477;-66
2021/12/04 14:31:12;;;;;;;58.07;3.00;;;;;;;;;;5052510;28;20890;-66
2021/12/04 14:33:41;;;;;;;58.17;2.70;;;;;;;;;;5052709;28;20492;-66
2021/12/04 14:36:08;;;;;;;58.27;3.10;;;;;;;;;;5052485;28;20449;-66
2021/12/04 14:38:36;;;;;;;58.40;2.80;;;;;;;;;;5052491;28;20493;-66
2021/12/04 14:41:05;;;;;;;58.30;3.00;;;;;;;;;;5056309;28;20456;-65
2021/12/04 14:43:36;;;;;;;58.50;2.97;;;;;;;;;;5072359;28;20302;-66
2021/12/04 14:46:04;;;;;;;58.27;3.00;;;;;;;;;;5072155;28;20458;-67
2021/12/04 14:48:33;;;;;;;57.90;2.90;;;;;;;;;;5072043;28;20557;-66
2021/12/04 14:51:06;;;;;;;58.20;3.00;;;;;;;;;;5072556;28;20519;-66
2021/12/04 14:53:33;;;;;;;58.97;3.27;;;;;;;;;;5072682;28;20511;-66
2021/12/04 14:56:00;;;;;;;58.60;3.20;;;;;;;;;;5072028;28;20994;-66
2021/12/04 14:58:29;;;;;;;58.03;2.90;;;;;;;;;;5071519;28;21004;-65
2021/12/04 15:00:59;;;;;;;59.60;3.00;;;;;;;;;;5072010;28;20963;-66
2021/12/04 15:03:31;;;;;;;58.60;3.30;;;;;;;;;;5072294;28;20474;-66
2021/12/04 15:06:01;;;;;;;59.53;3.90;;;;;;;;;;5071953;28;20883;-66
2021/12/04 15:08:30;;;;;;;58.70;3.20;;;;;;;;;;5071677;28;20475;-66
2021/12/04 15:10:59;;;;;;;58.90;3.20;;;;;;;;;;5071736;28;20700;-66
2021/12/04 15:13:29;;;;;;;59.17;3.47;;;;;;;;;;5070057;28;20453;-65
2021/12/04 15:15:59;;;;;;;58.40;3.50;;;;;;;;;;5072089;28;20453;-65
2021/12/04 15:18:31;;;;;;;59.50;3.50;;;;;;;;;;5071841;28;20572;-66
2021/12/04 15:21:00;;;;;;;57.97;2.70;;;;;;;;;;5071921;28;20445;-66
2021/12/04 15:23:29;;;;;;;61.60;4.43;;;;;;;;;;5071561;28;20454;-66
2021/12/04 15:25:57;;;;;;;58.73;3.60;;;;;;;;;;5071828;28;20866;-65
2021/12/04 15:28:26;;;;;;;58.50;3.50;;;;;;;;;;5071278;28;20946;-65
2021/12/04 15:30:54;;;;;;;58.63;3.10;;;;;;;;;;5071811;28;20457;-66
2021/12/04 15:33:24;;;;;;;71.33;11.20;;;;;;;;;;5071658;28;20520;-66
2021/12/04 15:35:51;;;;;;;58.73;3.33;;;;;;;;;;5071420;28;20449;-66
2021/12/04 15:38:25;;;;;;;58.60;3.47;;;;;;;;;;5070954;28;20855;-66
2021/12/04 15:41:01;;;;;;;60.60;5.03;;;;;;;;;;5071597;28;20457;-66
2021/12/04 15:43:34;;;;;;;58.10;2.83;;;;;;;;;;5069164;28;20446;-65
2021/12/04 15:46:10;;;;;;;59.17;3.30;;;;;;;;;;5071502;28;20832;-66
2021/12/04 15:54:33;;;;;;;58.63;3.37;;;;;;;;;;5071147;28;20429;-66
2021/12/04 15:57:00;;;;;;;59.20;3.60;;;;;;;;;;5071568;28;20488;-66
2021/12/04 15:59:29;;;;;;;58.87;3.03;;;;;;;;;;5071021;28;20495;-65
2021/12/04 16:01:57;;;;;;;58.50;3.30;;;;;;;;;;5071276;28;20543;-65
2021/12/04 16:04:26;;;;;;;59.30;3.50;;;;;;;;;;5071338;28;20480;-66
2021/12/04 16:06:54;;;;;;;58.77;3.17;;;;;;;;;;5071213;28;20457;-66
2021/12/04 16:09:28;;;;;;;59.07;3.70;;;;;;;;;;5070883;28;20469;-65
2021/12/04 16:11:59;;;;;;;59.60;4.00;;;;;;;;;;5071560;28;20451;-65
2021/12/04 16:14:30;;;;;;;58.83;3.57;;;;;;;;;;5068161;28;20552;-66
2021/12/04 16:16:57;;;;;;;59.40;3.67;;;;;;;;;;5071088;28;20449;-65
2021/12/04 16:19:27;;;;;;;58.97;3.60;;;;;;;;;;5070829;28;20488;-65
2021/12/04 16:21:59;;;;;;;61.87;5.00;;;;;;;;;;5071169;28;20451;-65
2021/12/04 16:24:26;;;;;;;59.50;3.90;;;;;;;;;;5073522;28;20456;-65
2021/12/04 16:26:58;;;;;;;59.50;4.20;;;;;;;;;;5074929;28;20457;-65
2021/12/04 16:29:26;;;;;;;59.10;3.63;;;;;;;;;;5074649;28;20466;-65
2021/12/04 16:32:14;;;;;;;59.00;3.80;;;;;;;;;;5074733;28;20543;-65
2021/12/04 16:37:36;;;;;;;59.77;3.87;;;;;;;;;;5074419;28;20523;-64
2021/12/04 16:40:06;;;;;;;60.10;3.93;;;;;;;;;;5074737;28;20475;-65
2021/12/04 16:42:34;;;;;;;66.67;10.10;;;;;;;;;;5073743;28;20499;-65
2021/12/04 16:45:01;;;;;;;58.30;3.77;;;;;;;;;;5073686;28;20447;-64
2021/12/04 16:47:28;;;;;;;60.07;4.30;;;;;;;;;;5070654;28;21015;-65
2021/12/04 16:49:58;;;;;;;64.07;5.90;;;;;;;;;;5074429;28;20489;-65
2021/12/04 16:58:03;;;;;;;64.17;5.00;;;;;;;;;;5063123;28;20540;-65
2021/12/04 17:00:31;;;;;;;59.93;4.10;;;;;;;;;;5074381;28;20523;-65
2021/12/04 17:02:58;;;;;;;62.83;6.00;;;;;;;;;;5074305;28;20536;-65